Airfield :
LOGIN :

Register | Disclaimer

   EN    FR    IT 

 










Legend :    VFR   Marginal VFR   IFR   Intensive IFR   Very Intensive IFR
Visi :
Ceiling :
>= 8 km
>= 3000ft
5 to 8 km
1000 to 3000 ft
1500m to 5 km
500 to 1000 ft
800 to 1500m
200 to 500 ft
< 800m
< 200 ft
Symbols :   Thunderstorms  Fog  Heavy snow  Heavy precipitations  Wind > 20 kt
SIGMETs :     Misc.  Thunderstorms  Icing  Turbulence  Mountain Waves  Volcanic Ashes







- Airport Elevation : 675 ft
- IATA code : RZE


EPRZ - Rzeszow-Jasionka

CURRENT METAR :
  • 202300Z 08017KT 5000 -SN BR BKN007 M01/M02 Q1019 REFZRA

EXPIRED METARs :
  • 202230Z 08016KT 7000 -FZRA BKN008 M01/M02 Q1019
  • 202200Z 09016KT 8000 -FZRA OVC011 M01/M03 Q1019
  • 202130Z 09017KT 9999 -SN OVC013 M01/M03 Q1019
  • 202100Z 09019KT 9999 OVC014 M01/M04 Q1019
  • 202030Z 09018KT 9999 OVC015 M01/M04 Q1019

TAF AMD TAF EPRZ
Valid from the 20 at 19:00 until the 21 at 18:00 UTC


201900Z 2019/2118 09015KT 9999 BKN040
BECMG 2019/2022 BKN013
TEMPO 2019/2108 3000 SN FZRA BR BKN007
PROB40
TEMPO 2021/2108 09016G26KT 1500 FZDZ BR BKN003
TEMPO 2108/2112 3000 -SN BR BKN005
No reported NOTAMs for that airfield.
1 SIGMET reported for the Warszawa FIR (EPWW) :
 
Severe icing with freezing rain
EPWW SIGMET 3 VALID 201925/202325 EPWA
EPWW WARSAW FIR SEV ICE (FZRA) FCST S OF LINE N4930 E02240 - N5100 E01910 - N5100 E01450 SFC/FL050 STNR WKN=



MET'MAP, your aeronautical weather chart ! - Copyright ORBIFLY December 2007 - Disclaimer

ORBIFLY MET'MAP TEAM :

Programming & Development : Alexandra Zaïnal
Concept & Development : Baudouin d'Aumeries
Co-Development & Prog : Marc-Olivier Méhu
Technical & hardware support : Manuel Goepfert

Contact : metmap@orbifly.com




SOURCES & CREDITS :

   NOAA